JAT1407 LDZA-UKBB
Flight info
| Callsign | JAT1407 |
|---|---|
| Flight time | 1h 46m |
| Altitude | 33000 |
| Route | KOPRY DCT DODAR DCT LONLA/K0850F330 M986 SLV |
| Aircraft | B722/M-SDFGHRWY/C |
Departure
| Time | 2026-04-27 23:55 |
|---|---|
| Airport | Zagreb Franjo Tuđman International Airport (LDZA) |
Arrival
| Time | 2026-04-28 01:42 |
|---|---|
| Airport | Boryspil International Airport (UKBB) |
| Time | Latitude | Longitude | Altitude | Speed | Heading |
|---|---|---|---|---|---|
| 2026-04-27 23:31 | 45.74133 | 16.07745 | 368 ft | 0 kts | 136° |
| 2026-04-27 23:45 | 45.74134 | 16.07743 | 362 ft | 1 kts | 136° |
| 2026-04-27 23:45 | 45.74146 | 16.07727 | 367 ft | 3 kts | 136° |
| 2026-04-27 23:45 | 45.74161 | 16.07707 | 367 ft | 3 kts | 136° |
| 2026-04-27 23:46 | 45.74174 | 16.07689 | 367 ft | 3 kts | 139° |
| 2026-04-27 23:46 | 45.74188 | 16.07679 | 366 ft | 3 kts | 176° |
| 2026-04-27 23:46 | 45.74202 | 16.07686 | 363 ft | 3 kts | 218° |
| 2026-04-27 23:46 | 45.74216 | 16.07705 | 367 ft | 2 kts | 227° |
| 2026-04-27 23:47 | 45.74219 | 16.07710 | 368 ft | 0 kts | 226° |
| 2026-04-27 23:49 | 45.74218 | 16.07709 | 368 ft | 2 kts | 226° |
| 2026-04-27 23:49 | 45.74197 | 16.07676 | 365 ft | 6 kts | 227° |
| 2026-04-27 23:50 | 45.74158 | 16.07616 | 363 ft | 10 kts | 227° |
| 2026-04-27 23:50 | 45.74106 | 16.07538 | 365 ft | 11 kts | 227° |
| 2026-04-27 23:50 | 45.74066 | 16.07447 | 365 ft | 11 kts | 266° |
| 2026-04-27 23:50 | 45.74099 | 16.07360 | 362 ft | 8 kts | 313° |
| 2026-04-27 23:51 | 45.74147 | 16.07293 | 368 ft | 11 kts | 319° |
| 2026-04-27 23:51 | 45.74204 | 16.07199 | 366 ft | 14 kts | 285° |
| 2026-04-27 23:51 | 45.74165 | 16.07075 | 363 ft | 15 kts | 228° |
| 2026-04-27 23:51 | 45.74086 | 16.06958 | 366 ft | 17 kts | 226° |
| 2026-04-27 23:52 | 45.73998 | 16.06824 | 364 ft | 19 kts | 227° |
| 2026-04-27 23:52 | 45.73903 | 16.06681 | 368 ft | 21 kts | 226° |
| 2026-04-27 23:52 | 45.73800 | 16.06522 | 368 ft | 22 kts | 227° |
| 2026-04-27 23:52 | 45.73688 | 16.06355 | 363 ft | 24 kts | 226° |
| 2026-04-27 23:53 | 45.73572 | 16.06175 | 366 ft | 25 kts | 226° |
| 2026-04-27 23:53 | 45.73459 | 16.06005 | 362 ft | 22 kts | 227° |
| 2026-04-27 23:53 | 45.73352 | 16.05842 | 367 ft | 23 kts | 226° |
| 2026-04-27 23:53 | 45.73295 | 16.05709 | 368 ft | 13 kts | 278° |
| 2026-04-27 23:54 | 45.73352 | 16.05608 | 364 ft | 14 kts | 321° |
| 2026-04-27 23:54 | 45.73440 | 16.05580 | 366 ft | 14 kts | 28° |
| 2026-04-27 23:54 | 45.73552 | 16.05748 | 367 ft | 48 kts | 46° |
| 2026-04-27 23:54 | 45.73936 | 16.06325 | 367 ft | 111 kts | 46° |
| 2026-04-27 23:55 | 45.74583 | 16.07321 | 383 ft | 157 kts | 46° |
| 2026-04-27 23:55 | 45.75335 | 16.08527 | 805 ft | 169 kts | 53° |
| 2026-04-27 23:55 | 45.75875 | 16.10033 | 1435 ft | 173 kts | 74° |
| 2026-04-27 23:55 | 45.75991 | 16.11778 | 1984 ft | 184 kts | 97° |
| 2026-04-27 23:56 | 45.75692 | 16.13589 | 2602 ft | 187 kts | 106° |
| 2026-04-27 23:56 | 45.75306 | 16.15460 | 3128 ft | 209 kts | 104° |
| 2026-04-27 23:56 | 45.75003 | 16.17589 | 3803 ft | 222 kts | 99° |
| 2026-04-27 23:56 | 45.74927 | 16.19743 | 4943 ft | 215 kts | 79° |
| 2026-04-27 23:57 | 45.75517 | 16.21737 | 5771 ft | 224 kts | 59° |
| 2026-04-27 23:57 | 45.76284 | 16.23731 | 6588 ft | 230 kts | 60° |
| 2026-04-27 23:57 | 45.77234 | 16.25597 | 7364 ft | 237 kts | 49° |
| 2026-04-27 23:57 | 45.78150 | 16.27644 | 7887 ft | 257 kts | 66° |
| 2026-04-27 23:58 | 45.78635 | 16.30194 | 8488 ft | 273 kts | 81° |
| 2026-04-27 23:58 | 45.78908 | 16.32916 | 9330 ft | 280 kts | 85° |
| 2026-04-27 23:58 | 45.78986 | 16.35742 | 10153 ft | 286 kts | 86° |
| 2026-04-27 23:58 | 45.79189 | 16.38557 | 11162 ft | 282 kts | 80° |
| 2026-04-27 23:59 | 45.79493 | 16.41371 | 11860 ft | 293 kts | 86° |
| 2026-04-27 23:59 | 45.79306 | 16.44326 | 12443 ft | 301 kts | 105° |
| 2026-04-27 23:59 | 45.78423 | 16.47037 | 13197 ft | 302 kts | 126° |
| 2026-04-27 23:59 | 45.76955 | 16.49172 | 14005 ft | 304 kts | 145° |
| 2026-04-28 00:00 | 45.75067 | 16.50558 | 14484 ft | 312 kts | 163° |
| 2026-04-28 00:00 | 45.72936 | 16.51095 | 14888 ft | 312 kts | 180° |
| 2026-04-28 00:00 | 45.70789 | 16.50756 | 15290 ft | 311 kts | 197° |
| 2026-04-28 00:00 | 45.68790 | 16.49607 | 15717 ft | 309 kts | 212° |
| 2026-04-28 00:01 | 45.67056 | 16.47812 | 16151 ft | 308 kts | 220° |
| 2026-04-28 00:01 | 45.65142 | 16.46342 | 16276 ft | 316 kts | 204° |
| 2026-04-28 00:01 | 45.63071 | 16.45347 | 16420 ft | 313 kts | 211° |
| 2026-04-28 00:01 | 45.61434 | 16.43410 | 16830 ft | 304 kts | 236° |
| 2026-04-28 00:02 | 45.60530 | 16.40721 | 17419 ft | 301 kts | 259° |
| 2026-04-28 00:02 | 45.60463 | 16.37748 | 18007 ft | 301 kts | 282° |
| 2026-04-28 00:02 | 45.61221 | 16.35012 | 18532 ft | 303 kts | 303° |
| 2026-04-28 00:02 | 45.62721 | 16.32902 | 19063 ft | 306 kts | 326° |
| 2026-04-28 00:03 | 45.64683 | 16.31703 | 19702 ft | 307 kts | 338° |
| 2026-04-28 00:03 | 45.66728 | 16.30703 | 20139 ft | 315 kts | 337° |
| 2026-04-28 00:03 | 45.68805 | 16.29627 | 20458 ft | 317 kts | 337° |
| 2026-04-28 00:03 | 45.70882 | 16.28556 | 20775 ft | 318 kts | 337° |
| 2026-04-28 00:04 | 45.72968 | 16.27489 | 21099 ft | 319 kts | 338° |
| 2026-04-28 00:04 | 45.77171 | 16.25360 | 21798 ft | 322 kts | 338° |
| 2026-04-28 00:04 | 45.79369 | 16.24642 | 22163 ft | 328 kts | 352° |
| 2026-04-28 00:05 | 45.81668 | 16.24833 | 22562 ft | 336 kts | 8° |
| 2026-04-28 00:05 | 45.83888 | 16.26002 | 22966 ft | 346 kts | 25° |
| 2026-04-28 00:05 | 45.85828 | 16.28110 | 23378 ft | 355 kts | 40° |
| 2026-04-28 00:05 | 45.86969 | 16.29814 | 23655 ft | 359 kts | 45° |
| 2026-04-28 00:06 | 45.89027 | 16.33646 | 24124 ft | 364 kts | 50° |
| 2026-04-28 00:06 | 45.90543 | 16.36561 | 24456 ft | 365 kts | 47° |
| 2026-04-28 00:06 | 45.92167 | 16.39363 | 24788 ft | 365 kts | 45° |
| 2026-04-28 00:06 | 45.93815 | 16.42155 | 25128 ft | 367 kts | 46° |
| 2026-04-28 00:07 | 45.95403 | 16.44990 | 25470 ft | 369 kts | 47° |
| 2026-04-28 00:07 | 45.96998 | 16.47887 | 25855 ft | 370 kts | 47° |
| 2026-04-28 00:07 | 45.98628 | 16.50779 | 26263 ft | 373 kts | 46° |
| 2026-04-28 00:07 | 46.00281 | 16.53684 | 26671 ft | 376 kts | 46° |
| 2026-04-28 00:08 | 46.01374 | 16.55626 | 26949 ft | 378 kts | 46° |
| 2026-04-28 00:08 | 46.03047 | 16.58622 | 27370 ft | 380 kts | 46° |
| 2026-04-28 00:08 | 46.04689 | 16.61560 | 27786 ft | 382 kts | 46° |
| 2026-04-28 00:08 | 46.06363 | 16.64540 | 28211 ft | 384 kts | 46° |
| 2026-04-28 00:09 | 46.08041 | 16.67536 | 28642 ft | 385 kts | 46° |
| 2026-04-28 00:09 | 46.09725 | 16.70553 | 29038 ft | 387 kts | 46° |
| 2026-04-28 00:09 | 46.11419 | 16.73587 | 29413 ft | 390 kts | 46° |
| 2026-04-28 00:09 | 46.13125 | 16.76643 | 29747 ft | 393 kts | 46° |
| 2026-04-28 00:10 | 46.14842 | 16.79728 | 30108 ft | 396 kts | 46° |
| 2026-04-28 00:10 | 46.16405 | 16.84073 | 28863 ft | 339 kts | 89° |
| 2026-04-28 00:10 | 46.16377 | 16.87604 | 27732 ft | 376 kts | 83° |
| 2026-04-28 00:10 | 46.16913 | 16.91322 | 27721 ft | 377 kts | 60° |
| 2026-04-28 00:11 | 46.18260 | 16.94521 | 28118 ft | 372 kts | 51° |
| 2026-04-28 00:11 | 46.19241 | 16.96623 | 28315 ft | 375 kts | 50° |
| 2026-04-28 00:11 | 46.21237 | 17.00730 | 28763 ft | 380 kts | 50° |
| 2026-04-28 00:11 | 46.22784 | 17.03837 | 29098 ft | 383 kts | 49° |
| 2026-04-28 00:12 | 46.24367 | 17.06952 | 29450 ft | 385 kts | 48° |
| 2026-04-28 00:12 | 46.26273 | 17.09575 | 29761 ft | 374 kts | 24° |
| 2026-04-28 00:12 | 46.28679 | 17.10716 | 30135 ft | 359 kts | 358° |
| 2026-04-28 00:12 | 46.31079 | 17.10178 | 30510 ft | 346 kts | 332° |
| 2026-04-28 00:13 | 46.33145 | 17.08484 | 30881 ft | 343 kts | 334° |
| 2026-04-28 00:13 | 46.35488 | 17.07781 | 31240 ft | 350 kts | 355° |
| 2026-04-28 00:13 | 46.37105 | 17.07914 | 31472 ft | 354 kts | 3° |
| 2026-04-28 00:13 | 46.39507 | 17.08855 | 31814 ft | 362 kts | 18° |
| 2026-04-28 00:14 | 46.41704 | 17.10717 | 32151 ft | 372 kts | 33° |
| 2026-04-28 00:14 | 46.43515 | 17.13447 | 32486 ft | 382 kts | 49° |
| 2026-04-28 00:14 | 46.44900 | 17.16744 | 32841 ft | 387 kts | 57° |
| 2026-04-28 00:14 | 46.46056 | 17.20300 | 33176 ft | 389 kts | 60° |
| 2026-04-28 00:15 | 46.47145 | 17.23950 | 33157 ft | 398 kts | 60° |
| 2026-04-28 00:15 | 46.49652 | 17.31258 | 33174 ft | 412 kts | 56° |
| 2026-04-28 00:16 | 46.52218 | 17.38852 | 33171 ft | 431 kts | 59° |
| 2026-04-28 00:16 | 46.54893 | 17.46827 | 33169 ft | 447 kts | 58° |
| 2026-04-28 00:17 | 46.57682 | 17.55100 | 33170 ft | 464 kts | 59° |
| 2026-04-28 00:17 | 46.60544 | 17.63683 | 33174 ft | 478 kts | 59° |
| 2026-04-28 00:18 | 46.63466 | 17.72431 | 33173 ft | 481 kts | 59° |
| 2026-04-28 00:18 | 46.66373 | 17.81186 | 33172 ft | 480 kts | 59° |
| 2026-04-28 00:19 | 46.69267 | 17.89912 | 33172 ft | 480 kts | 59° |
| 2026-04-28 00:19 | 46.72164 | 17.98690 | 33174 ft | 480 kts | 59° |
| 2026-04-28 00:20 | 46.75051 | 18.07460 | 33175 ft | 480 kts | 59° |
| 2026-04-28 00:20 | 46.77939 | 18.16266 | 33174 ft | 481 kts | 59° |
| 2026-04-28 00:21 | 46.80825 | 18.25093 | 33180 ft | 482 kts | 59° |
| 2026-04-28 00:21 | 46.83700 | 18.33926 | 33181 ft | 482 kts | 59° |
| 2026-04-28 00:22 | 46.86574 | 18.42772 | 33180 ft | 482 kts | 59° |
| 2026-04-28 00:22 | 46.89439 | 18.51634 | 33183 ft | 482 kts | 59° |
| 2026-04-28 00:23 | 46.92281 | 18.60443 | 33181 ft | 483 kts | 59° |
| 2026-04-28 00:23 | 46.95141 | 18.69348 | 33185 ft | 482 kts | 59° |
| 2026-04-28 00:24 | 46.97992 | 18.78253 | 33184 ft | 483 kts | 60° |
| 2026-04-28 00:24 | 47.00836 | 18.87167 | 33185 ft | 482 kts | 60° |
| 2026-04-28 00:25 | 47.03673 | 18.96092 | 33184 ft | 482 kts | 60° |
| 2026-04-28 00:25 | 47.06486 | 19.04966 | 33176 ft | 484 kts | 60° |
| 2026-04-28 00:26 | 47.09317 | 19.13938 | 33188 ft | 484 kts | 60° |
| 2026-04-28 00:26 | 47.12147 | 19.22929 | 33175 ft | 484 kts | 60° |
| 2026-04-28 00:27 | 47.14945 | 19.31855 | 33172 ft | 484 kts | 60° |
| 2026-04-28 00:27 | 47.17753 | 19.40847 | 33171 ft | 484 kts | 60° |
| 2026-04-28 00:28 | 47.20553 | 19.49843 | 33173 ft | 484 kts | 60° |
| 2026-04-28 00:28 | 47.23717 | 19.58501 | 33158 ft | 477 kts | 51° |
| 2026-04-28 00:29 | 47.27429 | 19.66607 | 33168 ft | 478 kts | 53° |
| 2026-04-28 00:29 | 47.30797 | 19.75013 | 33163 ft | 479 kts | 53° |
| 2026-04-28 00:30 | 47.34373 | 19.83280 | 33190 ft | 478 kts | 52° |
| 2026-04-28 00:30 | 47.37841 | 19.91697 | 33160 ft | 480 kts | 53° |
| 2026-04-28 00:31 | 47.41366 | 20.00067 | 33163 ft | 480 kts | 52° |
| 2026-04-28 00:31 | 47.44852 | 20.08476 | 33161 ft | 480 kts | 53° |
| 2026-04-28 00:32 | 47.48347 | 20.16882 | 33160 ft | 480 kts | 53° |
| 2026-04-28 00:32 | 47.51808 | 20.25254 | 33155 ft | 480 kts | 53° |
| 2026-04-28 00:33 | 47.55286 | 20.33685 | 33162 ft | 480 kts | 53° |
| 2026-04-28 00:33 | 47.58761 | 20.42138 | 33160 ft | 480 kts | 53° |
| 2026-04-28 00:34 | 47.62235 | 20.50613 | 33159 ft | 480 kts | 53° |
| 2026-04-28 00:34 | 47.65675 | 20.59033 | 33184 ft | 480 kts | 53° |
| 2026-04-28 00:35 | 47.69125 | 20.67504 | 33160 ft | 479 kts | 53° |
| 2026-04-28 00:35 | 47.72570 | 20.75987 | 33163 ft | 480 kts | 53° |
| 2026-04-28 00:36 | 47.76017 | 20.84502 | 33167 ft | 480 kts | 53° |
| 2026-04-28 00:36 | 47.79452 | 20.93016 | 33171 ft | 480 kts | 53° |
| 2026-04-28 00:37 | 47.82884 | 21.01549 | 33156 ft | 481 kts | 53° |
| 2026-04-28 00:37 | 47.86312 | 21.10099 | 33167 ft | 481 kts | 53° |
| 2026-04-28 00:38 | 47.89710 | 21.18599 | 33170 ft | 481 kts | 53° |
| 2026-04-28 00:38 | 47.93134 | 21.27194 | 33171 ft | 481 kts | 53° |
| 2026-04-28 00:39 | 47.96548 | 21.35788 | 33173 ft | 482 kts | 53° |
| 2026-04-28 00:39 | 47.99958 | 21.44404 | 33173 ft | 482 kts | 53° |
| 2026-04-28 00:40 | 48.03365 | 21.53035 | 33173 ft | 482 kts | 53° |
| 2026-04-28 00:40 | 48.06763 | 21.61677 | 33191 ft | 482 kts | 53° |
| 2026-04-28 00:41 | 48.10160 | 21.70341 | 33188 ft | 483 kts | 53° |
| 2026-04-28 00:41 | 48.13533 | 21.78968 | 33181 ft | 484 kts | 53° |
| 2026-04-28 00:42 | 48.16927 | 21.87687 | 33178 ft | 483 kts | 53° |
| 2026-04-28 00:42 | 48.20311 | 21.96398 | 33177 ft | 483 kts | 53° |
| 2026-04-28 00:43 | 48.23683 | 22.05113 | 33174 ft | 483 kts | 53° |
| 2026-04-28 00:43 | 48.27054 | 22.13851 | 33170 ft | 484 kts | 53° |
| 2026-04-28 00:44 | 48.30420 | 22.22606 | 33174 ft | 484 kts | 53° |
| 2026-04-28 00:44 | 48.33730 | 22.31342 | 33169 ft | 486 kts | 57° |
| 2026-04-28 00:45 | 48.36258 | 22.40935 | 33186 ft | 503 kts | 67° |
| 2026-04-28 00:45 | 48.38361 | 22.51120 | 33205 ft | 515 kts | 65° |
| 2026-04-28 00:46 | 48.40866 | 22.61228 | 33189 ft | 515 kts | 65° |
| 2026-04-28 00:46 | 48.43111 | 22.71469 | 33201 ft | 515 kts | 66° |
| 2026-04-28 00:47 | 48.45502 | 22.81615 | 33200 ft | 514 kts | 65° |
| 2026-04-28 00:47 | 48.47752 | 22.91885 | 33214 ft | 516 kts | 67° |
| 2026-04-28 00:48 | 48.50015 | 23.02131 | 33206 ft | 515 kts | 65° |
| 2026-04-28 00:48 | 48.52271 | 23.12393 | 33220 ft | 515 kts | 66° |
| 2026-04-28 00:49 | 48.54539 | 23.22614 | 33218 ft | 512 kts | 64° |
| 2026-04-28 00:49 | 48.57139 | 23.32519 | 33225 ft | 511 kts | 63° |
| 2026-04-28 00:50 | 48.59577 | 23.42649 | 33224 ft | 513 kts | 64° |
| 2026-04-28 00:50 | 48.62101 | 23.52703 | 33230 ft | 511 kts | 63° |
| 2026-04-28 00:51 | 48.64575 | 23.62826 | 33231 ft | 513 kts | 64° |
| 2026-04-28 00:51 | 48.66948 | 23.73006 | 33232 ft | 513 kts | 65° |
| 2026-04-28 00:52 | 48.69242 | 23.83208 | 33231 ft | 512 kts | 65° |
| 2026-04-28 00:52 | 48.71568 | 23.93334 | 33229 ft | 512 kts | 65° |
| 2026-04-28 00:53 | 48.73859 | 24.03558 | 33236 ft | 512 kts | 65° |
| 2026-04-28 00:53 | 48.76172 | 24.13786 | 33253 ft | 513 kts | 65° |
| 2026-04-28 00:54 | 48.78460 | 24.24044 | 33237 ft | 513 kts | 65° |
| 2026-04-28 00:54 | 48.80742 | 24.34275 | 33237 ft | 511 kts | 65° |
| 2026-04-28 00:55 | 48.83007 | 24.44501 | 33230 ft | 511 kts | 65° |
| 2026-04-28 00:55 | 48.85268 | 24.54747 | 33224 ft | 511 kts | 65° |
| 2026-04-28 00:56 | 48.87502 | 24.64932 | 33226 ft | 512 kts | 65° |
| 2026-04-28 00:56 | 48.90001 | 24.75026 | 33216 ft | 507 kts | 59° |
| 2026-04-28 00:57 | 48.93096 | 24.84649 | 33211 ft | 507 kts | 59° |
| 2026-04-28 00:57 | 48.95848 | 24.94559 | 33220 ft | 507 kts | 60° |
| 2026-04-28 00:58 | 48.98786 | 25.04301 | 33216 ft | 505 kts | 58° |
| 2026-04-28 00:58 | 49.01134 | 25.12469 | 33217 ft | 507 kts | 60° |
| 2026-04-28 00:59 | 49.03989 | 25.22335 | 33215 ft | 509 kts | 59° |
| 2026-04-28 00:59 | 49.07312 | 25.33827 | 33216 ft | 510 kts | 60° |
| 2026-04-28 01:00 | 49.09677 | 25.42067 | 33215 ft | 509 kts | 59° |
| 2026-04-28 01:00 | 49.12528 | 25.51976 | 33215 ft | 510 kts | 60° |
| 2026-04-28 01:01 | 49.15365 | 25.61898 | 33215 ft | 508 kts | 59° |
| 2026-04-28 01:01 | 49.18198 | 25.71804 | 33214 ft | 509 kts | 60° |
| 2026-04-28 01:02 | 49.21012 | 25.81725 | 33215 ft | 509 kts | 60° |
| 2026-04-28 01:02 | 49.23828 | 25.91661 | 33212 ft | 509 kts | 60° |
| 2026-04-28 01:03 | 49.26627 | 26.01608 | 33213 ft | 509 kts | 60° |
| 2026-04-28 01:03 | 49.29446 | 26.11570 | 33213 ft | 509 kts | 60° |
| 2026-04-28 01:04 | 49.32245 | 26.21546 | 33209 ft | 509 kts | 60° |
| 2026-04-28 01:04 | 49.35010 | 26.31540 | 33212 ft | 509 kts | 61° |
| 2026-04-28 01:05 | 49.37821 | 26.41430 | 33213 ft | 509 kts | 60° |
| 2026-04-28 01:05 | 49.40169 | 26.51756 | 33208 ft | 515 kts | 68° |
| 2026-04-28 01:06 | 49.42816 | 26.61825 | 33205 ft | 500 kts | 50° |
| 2026-04-28 01:06 | 49.46848 | 26.70463 | 33184 ft | 505 kts | 56° |
| 2026-04-28 01:07 | 49.49265 | 26.80759 | 33213 ft | 517 kts | 69° |
| 2026-04-28 01:07 | 49.51306 | 26.91331 | 33190 ft | 511 kts | 64° |
| 2026-04-28 01:08 | 49.53981 | 27.01451 | 33231 ft | 508 kts | 60° |
| 2026-04-28 01:08 | 49.56564 | 27.11572 | 33204 ft | 512 kts | 65° |
| 2026-04-28 01:09 | 49.58899 | 27.21968 | 33184 ft | 517 kts | 72° |
| 2026-04-28 01:09 | 49.59881 | 27.33008 | 33194 ft | 523 kts | 83° |
| 2026-04-28 01:10 | 49.60253 | 27.44214 | 33192 ft | 525 kts | 86° |
| 2026-04-28 01:10 | 49.59943 | 27.55490 | 33188 ft | 527 kts | 90° |
| 2026-04-28 01:11 | 49.60570 | 27.66567 | 33196 ft | 517 kts | 72° |
| 2026-04-28 01:11 | 49.62137 | 27.77414 | 33181 ft | 516 kts | 71° |
| 2026-04-28 01:12 | 49.64594 | 27.87641 | 33185 ft | 508 kts | 59° |
| 2026-04-28 01:12 | 49.67937 | 27.97214 | 33194 ft | 502 kts | 56° |
| 2026-04-28 01:12 | 49.69569 | 28.01815 | 33178 ft | 476 kts | 56° |
| 2026-04-28 01:13 | 49.71071 | 28.06264 | 32971 ft | 463 kts | 57° |
| 2026-04-28 01:13 | 49.73914 | 28.15134 | 32288 ft | 457 kts | 58° |
| 2026-04-28 01:13 | 49.75303 | 28.19552 | 32003 ft | 457 kts | 58° |
| 2026-04-28 01:14 | 49.76692 | 28.23965 | 31689 ft | 456 kts | 58° |
| 2026-04-28 01:14 | 49.78081 | 28.28362 | 31389 ft | 454 kts | 58° |
| 2026-04-28 01:14 | 49.79471 | 28.32745 | 31083 ft | 452 kts | 58° |
| 2026-04-28 01:14 | 49.80856 | 28.37099 | 30778 ft | 450 kts | 58° |
| 2026-04-28 01:15 | 49.82052 | 28.41583 | 30476 ft | 453 kts | 66° |
| 2026-04-28 01:15 | 49.82809 | 28.46337 | 30151 ft | 459 kts | 81° |
| 2026-04-28 01:15 | 49.82885 | 28.51234 | 29825 ft | 461 kts | 90° |
| 2026-04-28 01:15 | 49.82610 | 28.56185 | 29498 ft | 461 kts | 94° |
| 2026-04-28 01:16 | 49.82609 | 28.61099 | 29137 ft | 452 kts | 78° |
| 2026-04-28 01:16 | 49.83279 | 28.65811 | 28813 ft | 445 kts | 69° |
| 2026-04-28 01:16 | 49.84263 | 28.70324 | 28464 ft | 439 kts | 64° |
| 2026-04-28 01:16 | 49.85412 | 28.74688 | 28092 ft | 435 kts | 60° |
| 2026-04-28 01:17 | 49.86671 | 28.78931 | 27723 ft | 431 kts | 58° |
| 2026-04-28 01:17 | 49.88013 | 28.83065 | 27335 ft | 427 kts | 56° |
| 2026-04-28 01:17 | 49.89424 | 28.87092 | 26968 ft | 423 kts | 54° |
| 2026-04-28 01:17 | 49.90926 | 28.90988 | 26614 ft | 419 kts | 51° |
| 2026-04-28 01:18 | 49.92497 | 28.94779 | 26246 ft | 416 kts | 50° |
| 2026-04-28 01:18 | 49.94075 | 28.98470 | 25890 ft | 404 kts | 49° |
| 2026-04-28 01:18 | 49.95593 | 29.02004 | 25401 ft | 392 kts | 49° |
| 2026-04-28 01:18 | 49.97081 | 29.05486 | 24909 ft | 382 kts | 49° |
| 2026-04-28 01:19 | 49.98530 | 29.08896 | 24431 ft | 375 kts | 49° |
| 2026-04-28 01:19 | 49.99957 | 29.12273 | 23990 ft | 372 kts | 49° |
| 2026-04-28 01:19 | 50.01373 | 29.15628 | 23496 ft | 369 kts | 49° |
| 2026-04-28 01:19 | 50.02822 | 29.18882 | 22952 ft | 359 kts | 40° |
| 2026-04-28 01:20 | 50.04427 | 29.21831 | 22445 ft | 359 kts | 45° |
| 2026-04-28 01:20 | 50.05806 | 29.25104 | 21935 ft | 363 kts | 51° |
| 2026-04-28 01:20 | 50.07049 | 29.28521 | 21438 ft | 362 kts | 53° |
| 2026-04-28 01:20 | 50.08326 | 29.31864 | 20951 ft | 356 kts | 49° |
| 2026-04-28 01:21 | 50.09692 | 29.35050 | 20446 ft | 352 kts | 47° |
| 2026-04-28 01:21 | 50.11053 | 29.38233 | 19920 ft | 352 kts | 49° |
| 2026-04-28 01:21 | 50.12351 | 29.41453 | 19402 ft | 351 kts | 50° |
| 2026-04-28 01:21 | 50.13620 | 29.44628 | 18901 ft | 348 kts | 49° |
| 2026-04-28 01:22 | 50.14917 | 29.47791 | 18429 ft | 345 kts | 49° |
| 2026-04-28 01:22 | 50.16216 | 29.50938 | 17854 ft | 345 kts | 49° |
| 2026-04-28 01:22 | 50.17499 | 29.54091 | 17289 ft | 343 kts | 49° |
| 2026-04-28 01:22 | 50.18767 | 29.57226 | 16730 ft | 340 kts | 49° |
| 2026-04-28 01:23 | 50.20047 | 29.60325 | 16182 ft | 337 kts | 48° |
| 2026-04-28 01:23 | 50.21330 | 29.63369 | 15646 ft | 334 kts | 48° |
| 2026-04-28 01:23 | 50.22594 | 29.66397 | 15199 ft | 332 kts | 49° |
| 2026-04-28 01:23 | 50.23849 | 29.69432 | 14805 ft | 331 kts | 49° |
| 2026-04-28 01:24 | 50.25077 | 29.72400 | 14482 ft | 328 kts | 49° |
| 2026-04-28 01:24 | 50.26316 | 29.75385 | 14176 ft | 326 kts | 49° |
| 2026-04-28 01:24 | 50.27546 | 29.78353 | 13869 ft | 325 kts | 49° |
| 2026-04-28 01:24 | 50.28769 | 29.81314 | 13538 ft | 323 kts | 49° |
| 2026-04-28 01:25 | 50.29983 | 29.84256 | 13180 ft | 322 kts | 50° |
| 2026-04-28 01:25 | 50.31194 | 29.87192 | 12826 ft | 320 kts | 50° |
| 2026-04-28 01:25 | 50.32394 | 29.90106 | 12455 ft | 318 kts | 50° |
| 2026-04-28 01:25 | 50.33588 | 29.93007 | 12081 ft | 316 kts | 50° |
| 2026-04-28 01:26 | 50.34778 | 29.95902 | 11713 ft | 314 kts | 50° |
| 2026-04-28 01:26 | 50.35960 | 29.98783 | 11352 ft | 312 kts | 50° |
| 2026-04-28 01:26 | 50.37114 | 30.01595 | 11105 ft | 306 kts | 51° |
| 2026-04-28 01:26 | 50.38260 | 30.04396 | 11000 ft | 306 kts | 50° |
| 2026-04-28 01:27 | 50.39410 | 30.07198 | 10768 ft | 305 kts | 51° |
| 2026-04-28 01:27 | 50.40549 | 30.09986 | 10552 ft | 304 kts | 51° |
| 2026-04-28 01:27 | 50.41692 | 30.12785 | 10233 ft | 304 kts | 51° |
| 2026-04-28 01:27 | 50.42825 | 30.15563 | 9896 ft | 303 kts | 51° |
| 2026-04-28 01:28 | 50.43959 | 30.18347 | 9539 ft | 301 kts | 51° |
| 2026-04-28 01:28 | 50.45083 | 30.21108 | 9180 ft | 299 kts | 51° |
| 2026-04-28 01:28 | 50.46188 | 30.23829 | 9119 ft | 291 kts | 52° |
| 2026-04-28 01:28 | 50.47270 | 30.26493 | 9110 ft | 289 kts | 52° |
| 2026-04-28 01:29 | 50.48337 | 30.29118 | 9108 ft | 289 kts | 52° |
| 2026-04-28 01:29 | 50.49400 | 30.31745 | 9082 ft | 278 kts | 52° |
| 2026-04-28 01:29 | 50.50410 | 30.34250 | 8978 ft | 266 kts | 52° |
| 2026-04-28 01:29 | 50.51398 | 30.36680 | 8674 ft | 262 kts | 52° |
| 2026-04-28 01:30 | 50.52374 | 30.39088 | 8290 ft | 261 kts | 52° |
| 2026-04-28 01:30 | 50.53342 | 30.41484 | 7897 ft | 259 kts | 53° |
| 2026-04-28 01:30 | 50.54302 | 30.43869 | 7541 ft | 257 kts | 53° |
| 2026-04-28 01:30 | 50.55259 | 30.46241 | 7216 ft | 255 kts | 53° |
| 2026-04-28 01:31 | 50.56204 | 30.48586 | 6932 ft | 252 kts | 53° |
| 2026-04-28 01:31 | 50.57137 | 30.50903 | 6684 ft | 249 kts | 53° |
| 2026-04-28 01:31 | 50.58058 | 30.53197 | 6428 ft | 246 kts | 53° |
| 2026-04-28 01:31 | 50.58966 | 30.55459 | 6199 ft | 243 kts | 53° |
| 2026-04-28 01:32 | 50.59864 | 30.57693 | 5941 ft | 241 kts | 53° |
| 2026-04-28 01:32 | 50.60742 | 30.59882 | 5690 ft | 239 kts | 53° |
| 2026-04-28 01:32 | 50.61622 | 30.62082 | 5468 ft | 235 kts | 54° |
| 2026-04-28 01:32 | 50.62480 | 30.64227 | 5243 ft | 228 kts | 53° |
| 2026-04-28 01:33 | 50.63267 | 30.66368 | 4983 ft | 225 kts | 64° |
| 2026-04-28 01:33 | 50.63549 | 30.68782 | 4726 ft | 224 kts | 86° |
| 2026-04-28 01:33 | 50.63491 | 30.71195 | 4485 ft | 216 kts | 92° |
| 2026-04-28 01:33 | 50.63372 | 30.73548 | 4257 ft | 215 kts | 92° |
| 2026-04-28 01:34 | 50.63291 | 30.75895 | 4045 ft | 214 kts | 90° |
| 2026-04-28 01:34 | 50.63223 | 30.78223 | 3992 ft | 213 kts | 90° |
| 2026-04-28 01:34 | 50.63148 | 30.80556 | 3993 ft | 214 kts | 91° |
| 2026-04-28 01:34 | 50.63070 | 30.82910 | 3996 ft | 215 kts | 91° |
| 2026-04-28 01:35 | 50.62986 | 30.85259 | 3925 ft | 216 kts | 93° |
| 2026-04-28 01:35 | 50.62547 | 30.87477 | 3727 ft | 207 kts | 122° |
| 2026-04-28 01:35 | 50.61623 | 30.89137 | 3543 ft | 199 kts | 146° |
| 2026-04-28 01:35 | 50.60431 | 30.90086 | 3370 ft | 193 kts | 167° |
| 2026-04-28 01:36 | 50.59134 | 30.90568 | 3221 ft | 191 kts | 174° |
| 2026-04-28 01:36 | 50.57828 | 30.90930 | 3074 ft | 190 kts | 177° |
| 2026-04-28 01:36 | 50.56519 | 30.91229 | 2920 ft | 190 kts | 176° |
| 2026-04-28 01:36 | 50.55213 | 30.91350 | 2763 ft | 187 kts | 185° |
| 2026-04-28 01:37 | 50.53932 | 30.91739 | 2676 ft | 191 kts | 157° |
| 2026-04-28 01:37 | 50.52681 | 30.92347 | 2650 ft | 185 kts | 191° |
| 2026-04-28 01:37 | 50.51455 | 30.91850 | 2710 ft | 183 kts | 198° |
| 2026-04-28 01:37 | 50.50179 | 30.91637 | 2711 ft | 185 kts | 187° |
| 2026-04-28 01:38 | 50.48956 | 30.91600 | 2675 ft | 162 kts | 187° |
| 2026-04-28 01:38 | 50.47921 | 30.91538 | 2656 ft | 139 kts | 190° |
| 2026-04-28 01:38 | 50.46926 | 30.91438 | 2648 ft | 150 kts | 188° |
| 2026-04-28 01:38 | 50.45917 | 30.91390 | 2451 ft | 142 kts | 188° |
| 2026-04-28 01:39 | 50.44933 | 30.91297 | 2255 ft | 141 kts | 190° |
| 2026-04-28 01:39 | 50.43942 | 30.91235 | 2071 ft | 144 kts | 188° |
| 2026-04-28 01:39 | 50.42949 | 30.91187 | 1870 ft | 143 kts | 188° |
| 2026-04-28 01:39 | 50.42290 | 30.91159 | 1752 ft | 143 kts | 188° |
| 2026-04-28 01:40 | 50.40962 | 30.91085 | 1514 ft | 142 kts | 187° |
| 2026-04-28 01:40 | 50.40002 | 30.91000 | 1294 ft | 137 kts | 189° |
| 2026-04-28 01:40 | 50.39061 | 30.90873 | 1065 ft | 135 kts | 189° |
| 2026-04-28 01:40 | 50.38124 | 30.90779 | 854 ft | 135 kts | 185° |
| 2026-04-28 01:41 | 50.37190 | 30.90724 | 689 ft | 134 kts | 184° |
| 2026-04-28 01:41 | 50.36274 | 30.90668 | 521 ft | 130 kts | 183° |
| 2026-04-28 01:41 | 50.35408 | 30.90604 | 412 ft | 111 kts | 183° |
| 2026-04-28 01:41 | 50.34808 | 30.90562 | 419 ft | 55 kts | 184° |
| 2026-04-28 01:42 | 50.34527 | 30.90537 | 422 ft | 26 kts | 183° |
| 2026-04-28 01:42 | 50.34374 | 30.90524 | 416 ft | 23 kts | 185° |
| 2026-04-28 01:42 | 50.34213 | 30.90453 | 425 ft | 25 kts | 205° |
| 2026-04-28 01:42 | 50.34120 | 30.90374 | 423 ft | 1 kts | 210° |
| 2026-04-28 01:43 | 50.34102 | 30.90358 | 414 ft | 6 kts | 210° |
| 2026-04-28 01:43 | 50.34057 | 30.90307 | 412 ft | 10 kts | 228° |
| 2026-04-28 01:43 | 50.34050 | 30.90198 | 417 ft | 11 kts | 311° |
| 2026-04-28 01:43 | 50.34132 | 30.90176 | 413 ft | 14 kts | 6° |
| 2026-04-28 01:44 | 50.34239 | 30.90194 | 414 ft | 17 kts | 1° |
| 2026-04-28 01:44 | 50.34363 | 30.90199 | 419 ft | 7 kts | 2° |
| 2026-04-28 01:44 | 50.34424 | 30.90203 | 415 ft | 11 kts | 2° |
| 2026-04-28 01:44 | 50.34511 | 30.90209 | 416 ft | 14 kts | 2° |
| 2026-04-28 01:45 | 50.34621 | 30.90217 | 411 ft | 17 kts | 2° |
| 2026-04-28 01:45 | 50.34752 | 30.90226 | 419 ft | 20 kts | 2° |
| 2026-04-28 01:45 | 50.34859 | 30.90201 | 419 ft | 13 kts | 322° |
| 2026-04-28 01:45 | 50.34899 | 30.90065 | 418 ft | 15 kts | 295° |
| 2026-04-28 01:46 | 50.34959 | 30.90003 | 418 ft | 12 kts | 355° |
| 2026-04-28 01:46 | 50.35041 | 30.90005 | 418 ft | 9 kts | 3° |
| 2026-04-28 01:46 | 50.35096 | 30.89998 | 416 ft | 4 kts | 330° |
| 2026-04-28 01:46 | 50.35113 | 30.89951 | 415 ft | 7 kts | 287° |
| 2026-04-28 01:47 | 50.35116 | 30.89913 | 417 ft | 2 kts | 272° |
| 2026-04-28 01:47 | 50.35116 | 30.89912 | 417 ft | 0 kts | 272° |